KADS

Addison Airport

Dallas, Texas, USA
METAR KADS 231055Z 13004KT 10SM SKC 22/19 A3001
Observed Flight Rules
May-23 @ 10:55 UTC (12 minutes ago) Visual Flight Rules
Wind Visibility Clouds
130° at 4 knots 10 miles
  • Clear skies
Temperatures Readings
Current 22°C / 72°F
Dewpoint 19°C / 66°F
Humidity 83%
Altimeter 30.01" Hg
Pressure 1016 hPa
Elevation 196
METAR KADS 231055Z 13004KT 10SM SKC 22/19 A3001
Observed Flight Rules
May-23 @ 10:55 UTC
(12 minutes ago)
VFR
Wind Visibility
130° at 4 knots 10 miles
Clouds
  • Clear skies
Temperature Dewpoint
22°C / 72°F 19°C / 66°F
Humidity Altimeter Pressure
83% 30.01" Hg 1016 hPa